createdAt,value
2019-05-01T00:00:31.776Z,989.83
2019-05-01T00:01:31.717Z,989.88
2019-05-01T00:02:31.653Z,989.87
2019-05-01T00:03:31.562Z,989.86
2019-05-01T00:04:52.483Z,989.83
2019-05-01T00:05:31.432Z,989.89
2019-05-01T00:06:31.360Z,989.83
2019-05-01T00:07:31.330Z,989.89
2019-05-01T00:08:31.249Z,989.82
2019-05-01T00:09:31.174Z,989.82
2019-05-01T00:10:52.095Z,989.86
2019-05-01T00:11:31.022Z,989.84
2019-05-01T00:12:30.952Z,989.81
2019-05-01T00:13:30.894Z,989.78
2019-05-01T00:14:30.814Z,989.82
2019-05-01T00:15:30.764Z,989.78
2019-05-01T00:16:51.703Z,989.80
2019-05-01T00:17:30.610Z,989.76
2019-05-01T00:18:30.544Z,989.74
2019-05-01T00:19:30.503Z,989.73
2019-05-01T00:20:30.432Z,989.76
2019-05-01T00:21:30.367Z,989.73
2019-05-01T00:22:51.277Z,989.72
2019-05-01T00:23:30.201Z,989.77
2019-05-01T00:24:30.135Z,989.73
2019-05-01T00:25:30.100Z,989.75
2019-05-01T00:26:30.018Z,989.72
2019-05-01T00:27:29.932Z,989.75
2019-05-01T00:28:50.846Z,989.67
2019-05-01T00:29:29.790Z,989.69
2019-05-01T00:30:30.428Z,989.64
2019-05-01T00:31:29.678Z,989.68
2019-05-01T00:32:29.609Z,989.65
2019-05-01T00:33:29.518Z,989.64
2019-05-01T00:34:50.432Z,989.65
2019-05-01T00:35:29.409Z,989.63
2019-05-01T00:36:29.340Z,989.62
2019-05-01T00:37:29.266Z,989.61
2019-05-01T00:38:29.198Z,989.59
2019-05-01T00:39:29.106Z,989.56
2019-05-01T00:40:50.023Z,989.53
2019-05-01T00:41:28.974Z,989.57
2019-05-01T00:42:28.906Z,989.53
2019-05-01T00:43:28.864Z,989.55
2019-05-01T00:44:28.801Z,989.51
2019-05-01T00:45:28.725Z,989.56
2019-05-01T00:46:49.641Z,989.58
2019-05-01T00:47:28.572Z,989.59
2019-05-01T00:48:28.492Z,989.58
2019-05-01T00:49:28.444Z,989.60
2019-05-01T00:50:28.389Z,989.61
2019-05-01T00:51:28.287Z,989.63
2019-05-01T00:52:49.200Z,989.58
2019-05-01T00:53:28.157Z,989.60
2019-05-01T00:54:28.107Z,989.57
2019-05-01T00:55:28.040Z,989.57
2019-05-01T00:56:27.979Z,989.59
2019-05-01T00:57:27.880Z,989.61
2019-05-01T00:58:48.802Z,989.62
2019-05-01T00:59:27.762Z,989.62
2019-05-01T01:00:27.735Z,989.67
2019-05-01T01:01:27.635Z,989.64
2019-05-01T01:02:27.563Z,989.67
2019-05-01T01:03:27.468Z,989.64
2019-05-01T01:04:48.387Z,989.61
2019-05-01T01:05:27.354Z,989.61
2019-05-01T01:06:27.291Z,989.58
2019-05-01T01:07:27.199Z,989.56
2019-05-01T01:08:27.130Z,989.53
2019-05-01T01:09:27.060Z,989.53
2019-05-01T01:10:47.979Z,989.51
2019-05-01T01:11:26.948Z,989.47
2019-05-01T01:12:26.902Z,989.49
2019-05-01T01:13:26.820Z,989.41
2019-05-01T01:14:26.745Z,989.47
2019-05-01T01:15:26.650Z,989.41
2019-05-01T01:16:47.566Z,989.40
2019-05-01T01:17:26.541Z,989.41
2019-05-01T01:18:26.449Z,989.43
2019-05-01T01:19:26.402Z,989.47
2019-05-01T01:20:26.333Z,989.44
2019-05-01T01:21:26.283Z,989.47
2019-05-01T01:22:47.156Z,989.49
2019-05-01T01:23:26.128Z,989.47
2019-05-01T01:24:26.067Z,989.47
2019-05-01T01:25:25.995Z,989.41
2019-05-01T01:26:25.952Z,989.36
2019-05-01T01:27:25.833Z,989.32
2019-05-01T01:28:46.748Z,989.27
2019-05-01T01:29:25.734Z,989.25
2019-05-01T01:30:25.655Z,989.27
2019-05-01T01:31:25.556Z,989.21
2019-05-01T01:32:25.503Z,989.21
2019-05-01T01:33:25.425Z,989.19
2019-05-01T01:34:46.349Z,989.17
2019-05-01T01:35:25.336Z,989.10
2019-05-01T01:36:25.242Z,989.13
2019-05-01T01:37:25.151Z,989.18
2019-05-01T01:38:25.082Z,989.12
2019-05-01T01:39:25.043Z,989.13
2019-05-01T01:40:45.948Z,989.13
2019-05-01T01:41:24.905Z,989.09
2019-05-01T01:42:24.840Z,989.14
2019-05-01T01:43:24.777Z,989.17
2019-05-01T01:44:24.672Z,989.15
2019-05-01T01:45:24.607Z,989.16
2019-05-01T01:46:45.520Z,989.18
2019-05-01T01:47:24.486Z,989.20
2019-05-01T01:48:24.425Z,989.19
2019-05-01T01:49:24.355Z,989.21
2019-05-01T01:50:24.285Z,989.21
2019-05-01T01:51:24.192Z,989.21
2019-05-01T01:52:45.118Z,989.23
2019-05-01T01:53:24.081Z,989.22
2019-05-01T01:54:24.010Z,989.25
2019-05-01T01:55:23.922Z,989.18
2019-05-01T01:56:23.870Z,989.21
2019-05-01T01:57:23.796Z,989.19
2019-05-01T01:58:44.696Z,989.19
2019-05-01T01:59:23.667Z,989.18
2019-05-01T02:00:23.599Z,989.19
2019-05-01T02:01:23.530Z,989.20
2019-05-01T02:02:23.461Z,989.17
2019-05-01T02:03:23.370Z,989.22
2019-05-01T02:04:44.288Z,989.21
2019-05-01T02:05:23.232Z,989.23
2019-05-01T02:06:23.181Z,989.27
2019-05-01T02:07:23.127Z,989.29
2019-05-01T02:08:23.046Z,989.33
2019-05-01T02:09:22.960Z,989.32
2019-05-01T02:10:43.902Z,989.31
2019-05-01T02:11:22.846Z,989.34
2019-05-01T02:12:22.782Z,989.35
2019-05-01T02:13:22.710Z,989.34
2019-05-01T02:14:22.642Z,989.34
2019-05-01T02:15:22.549Z,989.32
2019-05-01T02:16:43.460Z,989.29
2019-05-01T02:17:22.402Z,989.27
2019-05-01T02:18:22.337Z,989.29
2019-05-01T02:19:22.309Z,989.31
2019-05-01T02:20:22.220Z,989.25
2019-05-01T02:21:22.158Z,989.29
2019-05-01T02:22:43.068Z,989.25
2019-05-01T02:23:21.993Z,989.23
2019-05-01T02:24:21.925Z,989.24
2019-05-01T02:25:21.872Z,989.25
2019-05-01T02:26:21.799Z,989.25
2019-05-01T02:27:21.715Z,989.28
2019-05-01T02:28:42.630Z,989.25
2019-05-01T02:29:21.576Z,989.27
2019-05-01T02:30:21.507Z,989.31
2019-05-01T02:31:28.378Z,989.23
2019-05-01T02:32:21.394Z,989.25
2019-05-01T02:33:21.297Z,989.27
2019-05-01T02:34:42.211Z,989.27
2019-05-01T02:35:21.181Z,989.26
2019-05-01T02:36:21.116Z,989.29
2019-05-01T02:37:21.042Z,989.28
2019-05-01T02:38:20.983Z,989.30
2019-05-01T02:39:20.882Z,989.25
2019-05-01T02:40:41.808Z,989.24
2019-05-01T02:41:20.776Z,989.25
2019-05-01T02:42:20.702Z,989.26
2019-05-01T02:43:20.607Z,989.26
2019-05-01T02:44:20.606Z,989.26
2019-05-01T02:45:20.468Z,989.25
2019-05-01T02:46:41.389Z,989.26
2019-05-01T02:47:20.364Z,989.26
2019-05-01T02:48:20.283Z,989.25
2019-05-01T02:49:20.229Z,989.26
2019-05-01T02:50:20.155Z,989.28
2019-05-01T02:51:20.059Z,989.28
2019-05-01T02:52:40.975Z,989.25
2019-05-01T02:53:19.910Z,989.22
2019-05-01T02:54:19.844Z,989.21
2019-05-01T02:55:19.792Z,989.22
2019-05-01T02:56:19.725Z,989.22
2019-05-01T02:57:19.628Z,989.21
2019-05-01T02:58:40.543Z,989.22
2019-05-01T02:59:19.532Z,989.21
2019-05-01T03:00:19.454Z,989.18
2019-05-01T03:01:19.378Z,989.21
2019-05-01T03:02:19.310Z,989.22
2019-05-01T03:03:19.212Z,989.22
2019-05-01T03:04:40.127Z,989.21
2019-05-01T03:05:19.080Z,989.21
2019-05-01T03:06:19.008Z,989.21
2019-05-01T03:07:18.956Z,989.20
2019-05-01T03:08:18.902Z,989.20
2019-05-01T03:09:18.821Z,989.22
2019-05-01T03:10:39.731Z,989.23
2019-05-01T03:11:18.672Z,989.21
2019-05-01T03:12:18.589Z,989.20
2019-05-01T03:13:18.541Z,989.24
2019-05-01T03:14:18.480Z,989.22
2019-05-01T03:15:18.387Z,989.21
2019-05-01T03:16:39.296Z,989.15
2019-05-01T03:17:18.241Z,989.17
2019-05-01T03:18:18.176Z,989.16
2019-05-01T03:19:18.131Z,989.15
2019-05-01T03:20:18.062Z,989.15
2019-05-01T03:21:18.001Z,989.17
2019-05-01T03:22:38.907Z,989.18
2019-05-01T03:23:17.840Z,989.16
2019-05-01T03:24:17.770Z,989.19
2019-05-01T03:25:17.694Z,989.22
2019-05-01T03:26:17.620Z,989.22
2019-05-01T03:27:17.582Z,989.22
2019-05-01T03:28:38.520Z,989.20
2019-05-01T03:29:17.418Z,989.18
2019-05-01T03:30:17.348Z,989.21
2019-05-01T03:31:17.401Z,989.18
2019-05-01T03:32:19.502Z,989.20
2019-05-01T03:33:17.159Z,989.18
2019-05-01T03:34:38.111Z,989.20
2019-05-01T03:35:16.998Z,989.17
2019-05-01T03:36:16.931Z,989.16
2019-05-01T03:37:16.879Z,989.18
2019-05-01T03:38:16.815Z,989.17
2019-05-01T03:39:16.717Z,989.19
2019-05-01T03:40:37.631Z,989.20
2019-05-01T03:41:16.583Z,989.19
2019-05-01T03:42:16.513Z,989.17
2019-05-01T03:43:16.465Z,989.16
2019-05-01T03:44:16.398Z,989.17
2019-05-01T03:45:16.300Z,989.20
2019-05-01T03:46:37.212Z,989.20
2019-05-01T03:47:16.195Z,989.22
2019-05-01T03:48:16.114Z,989.25
2019-05-01T03:49:16.044Z,989.23
2019-05-01T03:50:15.975Z,989.22
2019-05-01T03:51:15.882Z,989.21
2019-05-01T03:52:36.795Z,989.21
2019-05-01T03:53:15.742Z,989.19
2019-05-01T03:54:15.677Z,989.22
2019-05-01T03:55:15.632Z,989.22
2019-05-01T03:56:15.561Z,989.24
2019-05-01T03:57:15.500Z,989.23
2019-05-01T03:58:36.407Z,989.27
2019-05-01T03:59:15.325Z,989.24
2019-05-01T04:00:15.257Z,989.28
2019-05-01T04:01:15.218Z,989.31
2019-05-01T04:02:31.678Z,989.27
2019-05-01T04:03:15.047Z,989.30
2019-05-01T04:04:35.964Z,989.36
2019-05-01T04:05:14.910Z,989.35
2019-05-01T04:06:14.864Z,989.38
2019-05-01T04:07:14.796Z,989.35
2019-05-01T04:08:14.721Z,989.34
2019-05-01T04:09:14.654Z,989.39
2019-05-01T04:10:35.543Z,989.36
2019-05-01T04:11:14.489Z,989.34
2019-05-01T04:12:14.421Z,989.39
2019-05-01T04:13:14.365Z,989.34
2019-05-01T04:14:14.304Z,989.37
2019-05-01T04:15:14.235Z,989.37
2019-05-01T04:16:35.126Z,989.35
2019-05-01T04:17:14.086Z,989.38
2019-05-01T04:18:14.030Z,989.36
2019-05-01T04:19:13.958Z,989.39
2019-05-01T04:20:13.881Z,989.39
2019-05-01T04:21:13.817Z,989.32
2019-05-01T04:22:34.708Z,989.30
2019-05-01T04:23:13.649Z,989.30
2019-05-01T04:24:13.584Z,989.29
2019-05-01T04:25:13.515Z,989.28
2019-05-01T04:26:13.455Z,989.25
2019-05-01T04:27:13.396Z,989.23
2019-05-01T04:28:34.315Z,989.24
2019-05-01T04:29:13.251Z,989.24
2019-05-01T04:30:13.205Z,989.26
2019-05-01T04:31:13.089Z,989.24
2019-05-01T04:32:13.049Z,989.23
2019-05-01T04:33:12.970Z,989.27
2019-05-01T04:34:33.866Z,989.28
2019-05-01T04:35:12.890Z,989.31
2019-05-01T04:36:12.739Z,989.32
2019-05-01T04:37:12.678Z,989.34
2019-05-01T04:38:12.629Z,989.32
2019-05-01T04:39:12.546Z,989.34
2019-05-01T04:40:33.447Z,989.31
2019-05-01T04:41:12.389Z,989.33
2019-05-01T04:42:12.345Z,989.25
2019-05-01T04:43:12.282Z,989.29
2019-05-01T04:44:12.211Z,989.24
2019-05-01T04:45:12.142Z,989.29
2019-05-01T04:46:33.040Z,989.22
2019-05-01T04:47:11.974Z,989.26
2019-05-01T04:48:11.921Z,989.29
2019-05-01T04:49:11.853Z,989.28
2019-05-01T04:50:11.784Z,989.29
2019-05-01T04:51:11.689Z,989.28
2019-05-01T04:52:32.606Z,989.32
2019-05-01T04:53:11.553Z,989.31
2019-05-01T04:54:11.504Z,989.27
2019-05-01T04:55:11.432Z,989.29
2019-05-01T04:56:11.360Z,989.24
2019-05-01T04:57:11.301Z,989.31
2019-05-01T04:58:32.215Z,989.29
2019-05-01T04:59:11.138Z,989.28
2019-05-01T05:00:11.069Z,989.31
2019-05-01T05:01:10.993Z,989.32
2019-05-01T05:02:10.949Z,989.31
2019-05-01T05:03:10.881Z,989.37
2019-05-01T05:04:31.767Z,989.40
2019-05-01T05:05:10.713Z,989.40
2019-05-01T05:06:10.705Z,989.46
2019-05-01T05:07:10.600Z,989.47
2019-05-01T05:08:10.530Z,989.47
2019-05-01T05:09:10.459Z,989.49
2019-05-01T05:10:31.348Z,989.51
2019-05-01T05:11:10.324Z,989.51
2019-05-01T05:12:10.258Z,989.53
2019-05-01T05:13:10.186Z,989.56
2019-05-01T05:14:10.083Z,989.57
2019-05-01T05:15:10.015Z,989.60
2019-05-01T05:16:30.927Z,989.59
2019-05-01T05:17:09.875Z,989.59
2019-05-01T05:18:09.832Z,989.62
2019-05-01T05:19:09.778Z,989.62
2019-05-01T05:20:09.664Z,989.63
2019-05-01T05:21:09.589Z,989.63
2019-05-01T05:22:30.563Z,989.66
2019-05-01T05:23:09.478Z,989.69
2019-05-01T05:24:09.431Z,989.69
2019-05-01T05:25:09.341Z,989.68
2019-05-01T05:26:09.248Z,989.72
2019-05-01T05:27:09.177Z,989.73
2019-05-01T05:28:31.375Z,989.73
2019-05-01T05:29:09.039Z,989.74
2019-05-01T05:30:08.995Z,989.74
2019-05-01T05:31:08.922Z,989.75
2019-05-01T05:32:08.853Z,989.76
2019-05-01T05:33:18.266Z,989.75
2019-05-01T05:34:29.685Z,989.80
2019-05-01T05:35:08.615Z,989.81
2019-05-01T05:36:08.595Z,989.81
2019-05-01T05:37:08.505Z,989.81
2019-05-01T05:38:08.409Z,989.87
2019-05-01T05:39:08.339Z,989.86
2019-05-01T05:40:29.263Z,989.87
2019-05-01T05:41:08.193Z,989.85
2019-05-01T05:42:08.157Z,989.86
2019-05-01T05:43:08.080Z,989.86
2019-05-01T05:44:07.995Z,989.88
2019-05-01T05:45:07.936Z,989.93
2019-05-01T05:46:28.871Z,989.95
2019-05-01T05:47:07.806Z,989.91
2019-05-01T05:48:07.731Z,989.91
2019-05-01T05:49:07.666Z,989.96
2019-05-01T05:50:07.567Z,989.99
2019-05-01T05:51:07.505Z,989.97
2019-05-01T05:52:28.446Z,990.00
2019-05-01T05:53:07.381Z,989.97
2019-05-01T05:54:07.289Z,989.97
2019-05-01T05:55:07.224Z,990.04
2019-05-01T05:56:07.150Z,990.02
2019-05-01T05:57:07.083Z,990.01
2019-05-01T05:58:28.018Z,990.07
2019-05-01T05:59:06.958Z,990.09
2019-05-01T06:00:06.903Z,990.04
2019-05-01T06:01:06.836Z,990.07
2019-05-01T06:02:06.738Z,990.08
2019-05-01T06:03:06.659Z,990.10
2019-05-01T06:04:27.576Z,990.03
2019-05-01T06:05:06.532Z,990.05
2019-05-01T06:06:06.476Z,990.11
2019-05-01T06:07:06.406Z,990.10
2019-05-01T06:08:06.318Z,990.06
2019-05-01T06:09:09.048Z,990.10
2019-05-01T06:10:27.182Z,990.11
2019-05-01T06:11:06.132Z,990.17
2019-05-01T06:12:08.952Z,990.17
2019-05-01T06:13:05.996Z,990.19
2019-05-01T06:14:05.907Z,990.22
2019-05-01T06:15:06.307Z,990.19
2019-05-01T06:16:26.748Z,990.25
2019-05-01T06:17:05.697Z,990.22
2019-05-01T06:18:05.914Z,990.23
2019-05-01T06:19:09.587Z,990.24
2019-05-01T06:20:05.516Z,990.27
2019-05-01T06:21:05.448Z,990.24
2019-05-01T06:22:26.334Z,990.26
2019-05-01T06:23:05.281Z,990.26
2019-05-01T06:24:06.722Z,990.27
2019-05-01T06:25:05.173Z,990.26
2019-05-01T06:26:05.080Z,990.23
2019-05-01T06:27:08.925Z,990.25
2019-05-01T06:28:26.550Z,990.29
2019-05-01T06:29:04.870Z,990.29
2019-05-01T06:30:06.497Z,990.35
2019-05-01T06:31:04.757Z,990.33
2019-05-01T06:32:04.686Z,990.32
2019-05-01T06:33:09.504Z,990.31
2019-05-01T06:34:28.660Z,990.33
2019-05-01T06:35:04.646Z,990.34
2019-05-01T06:36:04.388Z,990.34
2019-05-01T06:37:04.321Z,990.36
2019-05-01T06:38:04.289Z,990.34
2019-05-01T06:39:06.828Z,990.34
2019-05-01T06:40:25.101Z,990.38
2019-05-01T06:41:04.049Z,990.30
2019-05-01T06:42:04.000Z,990.36
2019-05-01T06:43:03.938Z,990.38
2019-05-01T06:44:04.099Z,990.38
2019-05-01T06:45:03.793Z,990.40
2019-05-01T06:46:27.221Z,990.37
2019-05-01T06:47:05.124Z,990.37
2019-05-01T06:48:03.602Z,990.41
2019-05-01T06:49:03.528Z,990.40
2019-05-01T06:50:05.913Z,990.38
2019-05-01T06:51:03.363Z,990.41
2019-05-01T06:52:24.940Z,990.39
2019-05-01T06:53:04.717Z,990.37
2019-05-01T06:54:03.193Z,990.38
2019-05-01T06:55:03.126Z,990.34
2019-05-01T06:56:03.026Z,990.32
2019-05-01T06:57:02.959Z,990.32
2019-05-01T06:58:23.904Z,990.35
2019-05-01T06:59:02.853Z,990.33
2019-05-01T07:00:03.305Z,990.37
2019-05-01T07:01:02.713Z,990.33
2019-05-01T07:02:02.623Z,990.35
2019-05-01T07:03:05.957Z,990.33
2019-05-01T07:04:23.466Z,990.33
2019-05-01T07:05:02.424Z,990.39
2019-05-01T07:06:13.751Z,990.34
2019-05-01T07:07:06.682Z,990.36
2019-05-01T07:08:02.226Z,990.37
2019-05-01T07:09:02.175Z,990.40
2019-05-01T07:10:30.816Z,990.38
2019-05-01T07:11:02.007Z,990.40
2019-05-01T07:12:02.012Z,990.38
2019-05-01T07:13:04.997Z,990.36
2019-05-01T07:14:01.814Z,990.40
2019-05-01T07:15:01.741Z,990.38
2019-05-01T07:16:22.656Z,990.42
2019-05-01T07:17:01.620Z,990.37
2019-05-01T07:18:01.572Z,990.35
2019-05-01T07:19:05.770Z,990.39
2019-05-01T07:20:01.434Z,990.36
2019-05-01T07:21:01.358Z,990.35
2019-05-01T07:22:22.313Z,990.33
2019-05-01T07:23:01.201Z,990.31
2019-05-01T07:24:01.147Z,990.37
2019-05-01T07:25:03.899Z,990.34
2019-05-01T07:26:01.024Z,990.38
2019-05-01T07:27:00.959Z,990.31
2019-05-01T07:28:21.846Z,990.37
2019-05-01T07:29:00.802Z,990.37
2019-05-01T07:30:00.757Z,990.39
2019-05-01T07:31:00.721Z,990.37
2019-05-01T07:32:01.655Z,990.41
2019-05-01T07:33:00.554Z,990.46
2019-05-01T07:34:21.739Z,990.43
2019-05-01T07:35:02.173Z,990.42
2019-05-01T07:36:00.340Z,990.46
2019-05-01T07:37:00.261Z,990.44
2019-05-01T07:38:02.290Z,990.47
2019-05-01T07:39:00.145Z,990.45
2019-05-01T07:40:28.806Z,990.44
2019-05-01T07:41:03.296Z,990.45
2019-05-01T07:41:59.918Z,990.45
2019-05-01T07:42:59.853Z,990.50
2019-05-01T07:44:00.983Z,990.49
2019-05-01T07:45:03.733Z,990.49
2019-05-01T07:46:20.650Z,990.50
2019-05-01T07:46:59.586Z,990.48
2019-05-01T07:48:00.888Z,990.51
2019-05-01T07:48:59.454Z,990.52
2019-05-01T07:49:59.404Z,990.53
2019-05-01T07:51:01.941Z,990.56
2019-05-01T07:52:20.232Z,990.57
2019-05-01T07:52:59.184Z,990.52
2019-05-01T07:54:03.439Z,990.54
2019-05-01T07:54:59.077Z,990.57
2019-05-01T07:55:59.001Z,990.56
2019-05-01T07:57:03.132Z,990.56
2019-05-01T07:58:19.832Z,990.59
2019-05-01T07:58:58.780Z,990.57
2019-05-01T08:00:03.602Z,990.60
2019-05-01T08:00:58.663Z,990.59
2019-05-01T08:01:58.583Z,990.54
2019-05-01T08:03:02.551Z,990.54
2019-05-01T08:04:35.325Z,990.56
2019-05-01T08:04:58.408Z,990.58
2019-05-01T08:05:58.349Z,990.56
2019-05-01T08:06:58.675Z,990.57
2019-05-01T08:07:58.210Z,990.58
2019-05-01T08:08:58.134Z,990.56
2019-05-01T08:10:20.985Z,990.58
2019-05-01T08:10:59.827Z,990.57
2019-05-01T08:11:57.930Z,990.56
2019-05-01T08:13:00.381Z,990.54
2019-05-01T08:14:07.285Z,990.58
2019-05-01T08:14:57.748Z,990.54
2019-05-01T08:16:18.641Z,990.59
2019-05-01T08:16:57.633Z,990.52
2019-05-01T08:17:57.555Z,990.50
2019-05-01T08:18:58.903Z,990.53
2019-05-01T08:19:57.414Z,990.54
2019-05-01T08:20:57.350Z,990.53
2019-05-01T08:22:18.238Z,990.55
2019-05-01T08:22:57.188Z,990.52
2019-05-01T08:23:57.124Z,990.52
2019-05-01T08:24:58.684Z,990.50
2019-05-01T08:25:57.017Z,990.54
2019-05-01T08:26:56.941Z,990.55
2019-05-01T08:28:17.863Z,990.51
2019-05-01T08:28:56.826Z,990.54
2019-05-01T08:29:56.727Z,990.55
2019-05-01T08:30:56.678Z,990.55
2019-05-01T08:31:58.860Z,990.54
2019-05-01T08:32:56.563Z,990.57
2019-05-01T08:34:20.743Z,990.52
2019-05-01T08:35:00.406Z,990.51
2019-05-01T08:35:56.325Z,990.49
2019-05-01T08:36:56.258Z,990.48
2019-05-01T08:37:58.512Z,990.46
2019-05-01T08:38:56.149Z,990.46
2019-05-01T08:40:20.472Z,990.49
2019-05-01T08:40:56.780Z,990.45
2019-05-01T08:41:55.928Z,990.45
2019-05-01T08:42:55.860Z,990.48
2019-05-01T08:43:55.958Z,990.46
2019-05-01T08:44:59.930Z,990.50
2019-05-01T08:46:17.751Z,990.47
2019-05-01T08:46:55.622Z,990.49
2019-05-01T08:47:56.812Z,990.49
2019-05-01T08:48:55.462Z,990.47
2019-05-01T08:49:55.425Z,990.49
2019-05-01T08:50:59.067Z,990.53
2019-05-01T08:52:16.281Z,990.56
2019-05-01T08:52:55.222Z,990.52
2019-05-01T08:53:57.793Z,990.48
2019-05-01T08:54:55.246Z,990.50
2019-05-01T08:55:55.027Z,990.44
2019-05-01T08:56:58.062Z,990.40
2019-05-01T08:58:15.961Z,990.40
2019-05-01T08:58:54.798Z,990.38
2019-05-01T08:59:59.858Z,990.40
2019-05-01T09:00:54.678Z,990.37
2019-05-01T09:02:08.410Z,990.39
2019-05-01T09:03:07.633Z,990.37
2019-05-01T09:04:15.457Z,990.38
2019-05-01T09:05:02.199Z,990.37
2019-05-01T09:05:57.382Z,990.39
2019-05-01T09:06:54.299Z,990.36
2019-05-01T09:07:56.004Z,990.38
2019-05-01T09:08:54.168Z,990.37
2019-05-01T09:10:17.007Z,990.35
2019-05-01T09:10:54.642Z,990.39
2019-05-01T09:11:54.688Z,990.35
2019-05-01T09:12:53.894Z,990.36
2019-05-01T09:13:54.615Z,990.37
2019-05-01T09:14:53.781Z,990.35
2019-05-01T09:16:14.697Z,990.35
2019-05-01T09:16:53.646Z,990.35
2019-05-01T09:17:53.554Z,990.40
2019-05-01T09:18:53.485Z,990.37
2019-05-01T09:19:53.439Z,990.32
2019-05-01T09:20:53.372Z,990.32
2019-05-01T09:22:14.276Z,990.34
2019-05-01T09:22:53.224Z,990.35
2019-05-01T09:23:53.290Z,990.41
2019-05-01T09:24:53.090Z,990.40
2019-05-01T09:25:53.054Z,990.35
2019-05-01T09:26:52.985Z,990.40
2019-05-01T09:28:13.878Z,990.36
2019-05-01T09:28:52.832Z,990.42
2019-05-01T09:29:52.850Z,990.43
2019-05-01T09:30:52.717Z,990.37
2019-05-01T09:31:52.666Z,990.33
2019-05-01T09:32:54.602Z,990.32
2019-05-01T09:34:13.983Z,990.30
2019-05-01T09:34:52.442Z,990.28
2019-05-01T09:35:52.407Z,990.23
2019-05-01T09:36:52.329Z,990.28
2019-05-01T09:37:52.246Z,990.25
2019-05-01T09:38:52.172Z,990.23
2019-05-01T09:40:13.090Z,990.21
2019-05-01T09:40:52.050Z,990.24
2019-05-01T09:41:52.001Z,990.23
2019-05-01T09:42:54.604Z,990.23
2019-05-01T09:43:51.868Z,990.25
2019-05-01T09:44:51.800Z,990.28
2019-05-01T09:46:12.698Z,990.27
2019-05-01T09:46:51.644Z,990.22
2019-05-01T09:47:51.582Z,990.21
2019-05-01T09:48:51.516Z,990.18
2019-05-01T09:49:54.018Z,990.21
2019-05-01T09:50:51.421Z,990.19
2019-05-01T09:52:12.310Z,990.21
2019-05-01T09:52:55.219Z,990.15
2019-05-01T09:53:51.207Z,990.14
2019-05-01T09:54:51.159Z,990.11
2019-05-01T09:55:51.083Z,990.12
2019-05-01T09:56:51.026Z,990.13
2019-05-01T09:58:11.910Z,990.11
2019-05-01T09:58:50.864Z,990.09
2019-05-01T09:59:50.817Z,990.09
2019-05-01T10:00:52.814Z,990.10
2019-05-01T10:01:50.662Z,990.05
2019-05-01T10:02:50.646Z,990.04
2019-05-01T10:04:11.522Z,990.05
2019-05-01T10:04:50.480Z,990.04
2019-05-01T10:15:04.884Z,989.94
2019-05-01T10:16:04.776Z,989.92
2019-05-01T10:18:00.046Z,989.88
2019-05-01T10:18:59.960Z,989.88
2019-05-01T10:20:55.248Z,989.86
2019-05-01T10:21:57.944Z,989.80
2019-05-01T10:23:51.756Z,989.80
2019-05-01T10:24:50.322Z,989.83
2019-05-01T10:26:45.589Z,989.78
2019-05-01T10:27:45.501Z,989.78
2019-05-01T10:29:40.765Z,989.79
2019-05-01T10:30:40.664Z,989.75
2019-05-01T10:32:35.969Z,989.75
2019-05-01T10:33:35.869Z,989.73
2019-05-01T10:35:42.004Z,989.68
2019-05-01T10:36:31.058Z,989.65
2019-05-01T10:38:26.366Z,989.70
2019-05-01T10:39:26.253Z,989.62
2019-05-01T10:41:21.525Z,989.67
2019-05-01T10:42:21.447Z,989.60
2019-05-01T10:44:17.600Z,989.59
2019-05-01T10:45:17.484Z,989.55
2019-05-01T10:47:12.790Z,989.50
2019-05-01T10:48:12.697Z,989.47
2019-05-01T10:50:07.975Z,989.51
2019-05-01T10:51:07.877Z,989.50
2019-05-01T10:53:03.152Z,989.49
2019-05-01T10:54:03.082Z,989.48
2019-05-01T10:55:58.356Z,989.42
2019-05-01T10:56:58.835Z,989.44
2019-05-01T10:58:53.542Z,989.44
2019-05-01T10:59:53.466Z,989.41
2019-05-01T11:01:48.834Z,989.39
2019-05-01T11:02:48.675Z,989.35
2019-05-01T11:04:43.953Z,989.37
2019-05-01T11:05:55.402Z,989.34
2019-05-01T11:07:39.151Z,989.35
2019-05-01T11:08:39.062Z,989.33
2019-05-01T11:10:34.342Z,989.30
2019-05-01T11:11:34.262Z,989.33
2019-05-01T11:13:29.561Z,989.26
2019-05-01T11:14:29.458Z,989.28
2019-05-01T11:16:24.746Z,989.23
2019-05-01T11:17:24.648Z,989.23
2019-05-01T11:19:19.958Z,989.16
2019-05-01T11:20:19.843Z,989.15
2019-05-01T11:22:15.120Z,989.04
2019-05-01T11:23:15.044Z,989.05
2019-05-01T11:25:10.359Z,989.03
2019-05-01T11:26:10.234Z,989.02
2019-05-01T11:28:05.541Z,988.93
2019-05-01T11:29:05.439Z,988.97
2019-05-01T11:31:00.736Z,988.91
2019-05-01T11:32:00.648Z,988.94
2019-05-01T11:33:55.967Z,988.94
2019-05-01T11:34:55.886Z,988.91
2019-05-01T11:36:51.190Z,988.91
2019-05-01T11:37:51.074Z,988.94
2019-05-01T11:39:46.348Z,988.89
2019-05-01T11:40:46.261Z,988.88
2019-05-01T11:42:41.568Z,988.83
2019-05-01T11:43:41.473Z,988.80
2019-05-01T11:45:36.727Z,988.81
2019-05-01T11:46:36.662Z,988.79
2019-05-01T11:48:32.100Z,988.71
2019-05-01T11:49:31.859Z,988.71
2019-05-01T11:51:27.110Z,988.71
2019-05-01T11:52:27.037Z,988.65
2019-05-01T11:54:22.337Z,988.67
2019-05-01T11:55:22.221Z,988.62
2019-05-01T11:57:17.524Z,988.63
2019-05-01T11:58:17.443Z,988.59
2019-05-01T12:00:12.706Z,988.52
2019-05-01T12:01:12.608Z,988.57
2019-05-01T12:03:07.902Z,988.49
2019-05-01T12:04:07.803Z,988.49
2019-05-01T12:06:03.098Z,988.50
2019-05-01T12:07:02.991Z,988.48
2019-05-01T12:08:58.295Z,988.46
2019-05-01T12:09:58.215Z,988.48
2019-05-01T12:11:53.543Z,988.42
2019-05-01T12:12:53.422Z,988.36
2019-05-01T12:14:48.710Z,988.41
2019-05-01T12:15:48.633Z,988.41
2019-05-01T12:17:43.940Z,988.36
2019-05-01T12:18:43.829Z,988.31
2019-05-01T12:20:39.124Z,988.33
2019-05-01T12:21:39.042Z,988.34
2019-05-01T12:23:34.341Z,988.30
2019-05-01T12:24:34.235Z,988.26
2019-05-01T12:26:29.503Z,988.26
2019-05-01T12:27:29.407Z,988.24
2019-05-01T12:29:24.729Z,988.22
2019-05-01T12:30:24.624Z,988.18
2019-05-01T12:32:19.900Z,988.18
2019-05-01T12:33:19.813Z,988.17
2019-05-01T12:35:15.105Z,988.15
2019-05-01T12:36:15.010Z,988.09
2019-05-01T12:38:10.263Z,988.08
2019-05-01T12:39:10.184Z,988.03
2019-05-01T12:41:05.483Z,988.05
2019-05-01T12:42:05.369Z,988.02
2019-05-01T12:44:00.647Z,987.99
2019-05-01T12:45:00.571Z,988.06
2019-05-01T12:46:55.890Z,988.04
2019-05-01T12:47:55.778Z,988.04
2019-05-01T12:49:51.053Z,988.01
2019-05-01T12:50:50.974Z,987.98
2019-05-01T12:52:46.253Z,987.94
2019-05-01T12:53:46.157Z,987.92
2019-05-01T12:55:41.442Z,987.93
2019-05-01T12:56:41.350Z,987.92
2019-05-01T12:58:36.648Z,987.93
2019-05-01T12:59:36.540Z,987.91
2019-05-01T13:01:31.834Z,987.85
2019-05-01T13:02:31.736Z,987.91
2019-05-01T13:04:27.035Z,987.88
2019-05-01T13:05:26.943Z,987.83
2019-05-01T13:07:22.225Z,987.82
2019-05-01T13:08:22.141Z,987.81
2019-05-01T13:10:18.252Z,987.82
2019-05-01T13:11:18.165Z,987.80
2019-05-01T13:13:13.451Z,987.78
2019-05-01T13:14:13.345Z,987.77
2019-05-01T13:16:08.649Z,987.77
2019-05-01T13:17:08.553Z,987.75
2019-05-01T13:19:03.828Z,987.74
2019-05-01T13:20:03.761Z,987.69
2019-05-01T13:21:59.039Z,987.67
2019-05-01T13:22:58.943Z,987.66
2019-05-01T13:24:54.201Z,987.64
2019-05-01T13:25:54.119Z,987.61
2019-05-01T13:27:49.422Z,987.59
2019-05-01T13:28:49.329Z,987.59
2019-05-01T13:30:44.622Z,987.55
2019-05-01T13:31:44.515Z,987.55
2019-05-01T13:33:39.795Z,987.52
2019-05-01T13:34:39.695Z,987.53
2019-05-01T13:36:34.993Z,987.45
2019-05-01T13:37:34.909Z,987.40
2019-05-01T13:39:30.190Z,987.41
2019-05-01T13:40:30.101Z,987.39
2019-05-01T13:42:25.401Z,987.32